Terminal Aerodrome Forecast
Issued by NWS Huntsville, AL

Home | Current Version | Previous Version | Text Only | Print | Product List | Glossary On
Versions: 1 2 3 4 5 6 7 8 9 10 11 12 13 14 15 16 17 18 19 20 21 22 23 24 25 26 27 28 29 30 31 32
000
FTUS44 KHUN 120527
TAFMSL
TAF
KMSL 120527Z 1206/1306 00000KT P6SM FEW070
      TEMPO 1210/1213 2SM BR
     FM121500 13005KT P6SM SCT050 SCT250
      TEMPO 1220/1224 BKN040=

USA.gov is the U.S. government's official web portal to all federal, state and local government web resources and services.